Time;durP1;ratioP1;P1;durP2;ratioP2;P2;SDS_P1;SDS_P2;PMS_P1;PMS_P2;Temp;Humidity;BMP_temperature;BMP_pressure;BME280_temperature;BME280_humidity;BME280_pressure;Samples;Min_cycle;Max_cycle;Signal;HPM_P1;HPM_P2
2022/03/04 00:02:00;;;;;;;;;61.00;48.00;;;;;10.33;77.35;101432.44;5015664;28;45348;-69
2022/03/04 00:04:26;;;;;;;;;63.00;49.50;;;;;10.26;77.35;101436.16;5012907;28;45772;-69
2022/03/04 00:06:53;;;;;;;;;63.75;48.50;;;;;10.21;77.38;101431.00;5015049;28;45504;-69
2022/03/04 00:09:20;;;;;;;;;65.75;47.50;;;;;10.17;77.00;101442.50;5014515;28;45928;-69
2022/03/04 00:11:45;;;;;;;;;63.50;48.50;;;;;10.14;77.62;101438.22;5013276;28;45340;-69
2022/03/04 00:14:11;;;;;;;;;64.67;48.00;;;;;10.13;77.52;101447.03;5012709;28;45278;-69
2022/03/04 00:16:36;;;;;;;;;59.50;45.50;;;;;10.11;77.63;101437.44;5012920;28;46067;-69
2022/03/04 00:19:09;;;;;;;;;60.75;49.25;;;;;10.08;77.68;101435.78;5014844;28;45467;-69
2022/03/04 00:21:38;;;;;;;;;60.75;48.75;;;;;10.05;77.64;101437.63;5015842;28;45451;-69
2022/03/04 00:24:05;;;;;;;;;60.00;47.00;;;;;10.03;77.48;101437.69;5013415;28;45461;-69
2022/03/04 00:26:31;;;;;;;;;62.00;45.75;;;;;10.04;77.61;101433.28;5012395;28;46970;-69
2022/03/04 00:28:57;;;;;;;;;62.50;48.75;;;;;10.06;77.84;101434.09;5012681;28;45419;-68
2022/03/04 00:31:23;;;;;;;;;59.00;46.25;;;;;10.05;77.08;101433.25;5010735;28;45467;-69
2022/03/04 00:33:49;;;;;;;;;66.00;50.75;;;;;10.07;77.40;101430.56;5016477;28;45372;-69
2022/03/04 00:36:14;;;;;;;;;65.75;49.00;;;;;10.08;78.00;101438.41;5013213;28;46167;-69
2022/03/04 00:38:40;;;;;;;;;61.00;46.00;;;;;10.10;77.85;101436.59;5012379;28;45223;-69
2022/03/04 00:41:05;;;;;;;;;68.75;51.75;;;;;10.12;77.88;101434.78;5012323;28;45499;-69
2022/03/04 00:43:31;;;;;;;;;68.00;51.25;;;;;10.09;77.85;101424.38;5012176;28;45439;-69
2022/03/04 00:45:56;;;;;;;;;68.00;50.00;;;;;10.11;77.74;101430.44;5015047;28;48487;-69
2022/03/04 00:48:22;;;;;;;;;67.00;51.25;;;;;10.07;77.85;101426.16;5014002;28;45365;-69
2022/03/04 00:50:47;;;;;;;;;64.00;46.50;;;;;10.08;77.99;101432.31;5012340;28;45604;-69
2022/03/04 00:53:12;;;;;;;;;67.67;50.67;;;;;10.06;78.18;101434.97;5011956;28;45399;-69
2022/03/04 00:55:38;;;;;;;;;64.50;49.50;;;;;10.04;78.02;101422.78;5012059;28;45512;-69
2022/03/04 00:58:06;;;;;;;;;62.00;47.00;;;;;10.04;77.90;101422.78;5014022;28;45329;-69
2022/03/04 01:00:32;;;;;;;;;67.50;49.25;;;;;10.00;78.33;101427.25;5012341;28;45440;-69
2022/03/04 01:02:57;;;;;;;;;63.25;46.75;;;;;10.00;78.50;101429.88;5014909;28;47019;-69
2022/03/04 01:05:22;;;;;;;;;65.75;50.50;;;;;10.02;78.39;101428.06;5011533;28;46879;-69
2022/03/04 01:07:47;;;;;;;;;66.00;51.75;;;;;10.05;78.52;101427.13;5015960;28;47260;-69
2022/03/04 01:10:13;;;;;;;;;64.67;48.00;;;;;10.03;78.29;101423.72;5012528;28;45415;-69
2022/03/04 01:12:38;;;;;;;;;66.00;49.25;;;;;10.00;78.01;101429.88;4998019;28;45498;-69
2022/03/04 01:15:04;;;;;;;;;64.25;49.75;;;;;10.01;78.02;101428.13;5012848;28;45654;-69
2022/03/04 01:17:30;;;;;;;;;70.50;52.50;;;;;10.00;78.02;101429.88;5011575;28;45424;-69
2022/03/04 01:19:55;;;;;;;;;65.75;48.25;;;;;10.00;77.85;101429.03;5011742;28;45421;-69
2022/03/04 01:22:20;;;;;;;;;64.25;49.50;;;;;10.01;78.27;101428.97;5011610;28;45404;-69
2022/03/04 01:24:46;;;;;;;;;60.75;48.25;;;;;10.02;78.00;101432.47;5016115;28;45427;-69
2022/03/04 01:27:11;;;;;;;;;67.25;50.50;;;;;10.03;78.08;101432.44;5012531;28;45438;-69
2022/03/04 01:29:36;;;;;;;;;63.67;50.00;;;;;10.00;78.08;101424.63;5011206;28;47688;-69
2022/03/04 01:32:02;;;;;;;;;67.00;52.00;;;;;10.02;78.04;101430.69;5011604;28;45399;-70
2022/03/04 01:34:27;;;;;;;;;66.50;51.75;;;;;10.00;77.76;101421.16;5011431;28;45479;-69
2022/03/04 01:36:52;;;;;;;;;67.25;50.00;;;;;9.93;77.75;101418.72;5014852;28;45376;-69
2022/03/04 01:39:18;;;;;;;;;69.00;50.67;;;;;9.86;77.83;101422.41;5013297;28;45218;-69
2022/03/04 01:41:43;;;;;;;;;62.33;50.00;;;;;9.78;77.52;101427.03;5011845;28;45349;-69
2022/03/04 01:44:08;;;;;;;;;65.50;51.50;;;;;9.70;77.82;101428.16;5010836;28;46904;-69
2022/03/04 01:46:34;;;;;;;;;63.75;49.50;;;;;9.60;77.80;101427.53;5010892;28;45894;-70
2022/03/04 01:48:59;;;;;;;;;66.33;49.33;;;;;9.54;77.75;101427.72;5013551;28;49991;-69
2022/03/04 01:51:25;;;;;;;;;64.00;49.25;;;;;9.48;77.89;101426.13;5013431;28;45388;-69
2022/03/04 01:53:50;;;;;;;;;63.75;50.25;;;;;9.43;77.95;101421.91;5011495;28;46175;-69
2022/03/04 01:56:16;;;;;;;;;69.50;52.75;;;;;9.35;78.13;101417.72;5011063;28;45523;-69
2022/03/04 01:58:41;;;;;;;;;64.50;51.75;;;;;9.27;78.32;101424.94;5010366;28;45416;-69
2022/03/04 02:01:07;;;;;;;;;70.75;51.00;;;;;9.21;78.44;101416.38;5013139;28;45481;-70
2022/03/04 02:03:33;;;;;;;;;72.00;53.25;;;;;9.17;78.41;101417.34;5015647;28;45336;-69
2022/03/04 02:05:58;;;;;;;;;64.25;52.75;;;;;9.13;78.45;101414.81;5010230;28;45446;-69
2022/03/04 02:08:23;;;;;;;;;69.00;54.00;;;;;9.09;78.21;101410.56;5011299;28;45416;-69
2022/03/04 02:10:49;;;;;;;;;65.75;52.00;;;;;9.03;78.21;101413.34;5010863;28;45270;-69
2022/03/04 02:13:16;;;;;;;;;70.25;54.25;;;;;8.99;78.45;101410.84;5011236;28;47567;-69
2022/03/04 02:15:43;;;;;;;;;76.50;57.25;;;;;8.93;78.35;101406.63;5014935;28;45423;-70
2022/03/04 02:18:12;;;;;;;;;77.00;57.75;;;;;8.87;78.59;101398.88;5011251;28;45369;-69
2022/03/04 02:20:41;;;;;;;;;73.75;56.00;;;;;8.82;78.76;101399.03;5010667;28;45518;-69
2022/03/04 02:23:07;;;;;;;;;70.75;54.50;;;;;8.80;78.67;101389.47;5010845;28;47224;-69
2022/03/04 02:25:32;;;;;;;;;72.25;54.25;;;;;8.76;78.52;101393.91;5010614;28;45388;-69
2022/03/04 02:27:58;;;;;;;;;78.00;59.00;;;;;8.72;78.42;101396.63;5013509;28;45421;-70
2022/03/04 02:30:23;;;;;;;;;72.33;56.33;;;;;8.70;78.56;101395.81;5011095;28;45431;-69
2022/03/04 02:32:48;;;;;;;;;73.50;55.00;;;;;8.68;79.05;101389.78;5014129;28;47152;-69
2022/03/04 02:35:14;;;;;;;;;71.25;55.25;;;;;8.63;78.72;101395.97;5010142;28;56456;-68
2022/03/04 02:37:39;;;;;;;;;69.00;52.50;;;;;8.57;78.77;101390.03;5010695;28;45526;-68
2022/03/04 02:40:05;;;;;;;;;71.00;52.67;;;;;8.55;79.04;101390.06;5012486;28;45561;-68
2022/03/04 02:42:31;;;;;;;;;69.50;53.00;;;;;8.55;79.14;101397.91;5013273;28;46537;-68
2022/03/04 02:44:56;;;;;;;;;73.25;52.00;;;;;8.55;79.18;101403.16;5010505;28;49700;-68
2022/03/04 02:47:21;;;;;;;;;76.75;55.25;;;;;8.55;79.15;101392.66;5010437;28;45531;-68
2022/03/04 02:49:47;;;;;;;;;73.50;55.50;;;;;8.53;79.33;101402.34;5010411;28;45487;-68
2022/03/04 02:52:12;;;;;;;;;61.25;51.75;;;;;8.50;79.49;101397.16;5011164;28;46104;-68
2022/03/04 02:54:37;;;;;;;;;69.33;52.67;;;;;8.49;79.12;101405.06;5014155;28;48528;-69
2022/03/04 02:57:03;;;;;;;;;77.00;55.50;;;;;8.44;79.05;101396.44;5010983;28;45525;-68
2022/03/04 02:59:28;;;;;;;;;70.50;54.75;;;;;8.42;79.17;101401.72;5008157;28;45344;-68
2022/03/04 03:01:53;;;;;;;;;70.00;56.00;;;;;8.38;79.62;101397.47;5013345;28;49360;-68
2022/03/04 03:04:19;;;;;;;;;74.67;57.00;;;;;8.37;79.74;101403.59;5009907;28;45414;-68
2022/03/04 03:06:45;;;;;;;;;62.50;49.75;;;;;8.38;79.64;101407.06;5003884;28;45207;-68
2022/03/04 03:09:10;;;;;;;;;73.50;56.75;;;;;8.35;79.62;101403.59;5010804;28;45274;-68
2022/03/04 03:11:35;;;;;;;;;76.50;57.25;;;;;8.33;79.36;101400.16;5009909;28;45905;-68
2022/03/04 03:14:01;;;;;;;;;72.33;55.67;;;;;8.31;79.60;101401.09;5009702;28;45459;-68
2022/03/04 03:16:26;;;;;;;;;77.00;58.00;;;;;8.28;79.82;101401.16;5010022;28;45274;-68
2022/03/04 03:18:51;;;;;;;;;73.25;53.50;;;;;8.30;79.64;101399.34;5013576;28;45309;-68
2022/03/04 03:21:16;;;;;;;;;77.33;57.67;;;;;8.29;79.79;101403.72;5011419;28;45334;-68
2022/03/04 03:23:42;;;;;;;;;76.67;60.33;;;;;8.28;79.79;101401.16;5010102;28;45443;-68
2022/03/04 03:26:08;;;;;;;;;73.75;54.75;;;;;8.28;79.77;101403.78;5009788;28;45461;-69
2022/03/04 03:28:34;;;;;;;;;74.75;56.25;;;;;8.28;80.13;101403.78;5009435;28;45386;-69
2022/03/04 03:31:00;;;;;;;;;75.75;58.00;;;;;8.26;80.33;101408.19;5012487;28;46022;-69
2022/03/04 03:33:25;;;;;;;;;68.00;49.50;;;;;8.24;80.09;101410.81;5014232;28;45392;-69
2022/03/04 03:35:54;;;;;;;;;78.50;56.25;;;;;8.19;80.02;101406.59;5010310;28;45444;-69
2022/03/04 03:38:21;;;;;;;;;76.00;57.00;;;;;8.19;80.24;101406.59;5009746;28;45593;-69
2022/03/04 03:40:47;;;;;;;;;72.50;54.75;;;;;8.17;80.36;101405.78;5009497;28;47622;-69
2022/03/04 03:43:12;;;;;;;;;75.75;54.25;;;;;8.19;80.43;101406.59;5009864;28;45411;-69
2022/03/04 03:45:37;;;;;;;;;76.00;54.33;;;;;8.18;80.54;101408.34;5013154;28;52670;-69
2022/03/04 03:48:03;;;;;;;;;76.75;57.75;;;;;8.18;81.02;101410.97;4992647;28;45500;-69
2022/03/04 03:50:30;;;;;;;;;71.00;54.50;;;;;8.22;80.81;101412.63;5009518;28;45929;-69
2022/03/04 03:52:56;;;;;;;;;66.75;52.00;;;;;8.23;80.87;101422.19;5009369;28;45824;-69
2022/03/04 03:55:22;;;;;;;;;73.00;56.00;;;;;8.23;80.83;101416.09;5009727;28;45396;-69
2022/03/04 03:57:47;;;;;;;;;67.00;53.50;;;;;8.25;81.10;101416.94;5013348;28;45309;-69
2022/03/04 04:00:13;;;;;;;;;68.00;49.75;;;;;8.24;80.68;101421.28;5009800;28;45314;-69
2022/03/04 04:02:39;;;;;;;;;75.00;55.25;;;;;8.23;80.61;101416.09;5013007;28;45454;-69
2022/03/04 04:05:05;;;;;;;;;77.75;54.25;;;;;8.20;81.04;101424.03;5009666;28;45503;-69
2022/03/04 04:07:31;;;;;;;;;70.75;54.25;;;;;8.18;81.70;101426.66;5009099;28;45440;-70
2022/03/04 04:09:56;;;;;;;;;79.00;56.33;;;;;8.22;81.62;101432.72;5012127;28;50898;-69
2022/03/04 04:12:22;;;;;;;;;67.75;52.00;;;;;8.27;81.75;101442.19;5010501;28;45290;-69
2022/03/04 04:14:47;;;;;;;;;70.25;54.50;;;;;8.34;82.39;101440.28;5013481;28;45440;-69
2022/03/04 04:17:12;;;;;;;;;71.67;55.33;;;;;8.40;82.70;101442.78;5009236;28;45285;-69
2022/03/04 04:19:38;;;;;;;;;69.67;55.00;;;;;8.46;82.19;101439.22;5009094;28;45499;-69
2022/03/04 04:22:04;;;;;;;;;73.33;54.00;;;;;8.51;82.53;101432.97;5011359;28;45388;-69
2022/03/04 04:24:29;;;;;;;;;76.75;56.00;;;;;8.58;82.32;101437.16;5012258;28;45318;-69
2022/03/04 04:26:55;;;;;;;;;74.25;55.50;;;;;8.60;82.39;101429.25;5011423;28;45296;-69
2022/03/04 04:29:20;;;;;;;;;75.25;56.75;;;;;8.70;82.51;101435.13;5011646;28;45946;-69
2022/03/04 04:31:45;;;;;;;;;71.00;56.75;;;;;8.74;82.39;101436.78;5012572;28;45323;-69
2022/03/04 04:34:11;;;;;;;;;74.25;54.50;;;;;8.77;82.12;101437.59;5013059;28;45417;-69
2022/03/04 04:36:37;;;;;;;;;71.50;55.25;;;;;8.81;82.33;101436.59;5016477;28;45542;-69
2022/03/04 04:39:03;;;;;;;;;72.25;55.00;;;;;8.87;81.82;101440.81;5012800;28;47212;-69
2022/03/04 04:41:28;;;;;;;;;71.75;55.00;;;;;8.91;82.19;101444.22;5011018;28;45444;-69
2022/03/04 04:43:54;;;;;;;;;76.25;55.75;;;;;8.92;nan;101438.09;5015532;28;45341;-69
2022/03/04 04:46:19;;;;;;;;;76.75;56.50;;;;;8.99;81.89;101437.06;5012148;28;45654;-69
2022/03/04 04:48:45;;;;;;;;;75.25;52.25;;;;;9.02;81.87;101442.19;5016430;28;45436;-70
2022/03/04 04:51:10;;;;;;;;;76.00;56.25;;;;;9.06;82.00;101446.47;5012765;28;45368;-69
2022/03/04 04:53:36;;;;;;;;;73.50;57.25;;;;;9.11;81.99;101436.72;5012120;28;45804;-69
2022/03/04 04:56:02;;;;;;;;;77.00;57.75;;;;;9.14;nan;101440.16;5011706;28;45456;-69
2022/03/04 04:58:28;;;;;;;;;77.00;56.50;;;;;9.19;81.74;101444.38;5011867;28;47276;-69
2022/03/04 05:00:53;;;;;;;;;80.25;57.00;;;;;9.20;81.71;101441.75;5015840;28;45420;-69
2022/03/04 05:03:23;;;;;;;;;69.00;53.25;;;;;9.24;82.14;101442.50;5005720;28;45278;-69
2022/03/04 05:05:49;;;;;;;;;74.00;56.25;;;;;9.27;81.80;101447.69;5002959;28;45501;-69
2022/03/04 05:08:16;;;;;;;;;75.75;54.75;;;;;9.31;81.36;101444.94;5008701;28;46180;-69
2022/03/04 05:10:42;;;;;;;;;70.50;55.75;;;;;9.32;81.44;101446.66;5011424;28;45247;-69
2022/03/04 05:13:07;;;;;;;;;75.50;55.75;;;;;9.35;81.24;101438.72;5013551;28;45328;-69
2022/03/04 05:15:32;;;;;;;;;71.33;55.00;;;;;9.41;81.35;101443.81;5015026;28;45350;-70
2022/03/04 05:17:58;;;;;;;;;80.67;57.33;;;;;9.47;81.43;101448.00;5012261;28;46035;-69
2022/03/04 05:20:23;;;;;;;;;73.50;58.00;;;;;9.49;81.33;101453.22;5011646;28;45218;-69
2022/03/04 05:22:48;;;;;;;;;76.25;54.75;;;;;9.51;81.54;101460.16;5011755;28;45274;-69
2022/03/04 05:25:14;;;;;;;;;70.67;53.00;;;;;9.54;81.58;101460.06;5011867;28;50094;-69
2022/03/04 05:27:40;;;;;;;;;72.25;55.00;;;;;9.57;81.75;101452.13;5015513;28;45365;-70
2022/03/04 05:30:06;;;;;;;;;71.50;54.75;;;;;9.59;81.32;101463.41;5012358;28;45845;-69
2022/03/04 05:32:32;;;;;;;;;73.50;55.00;;;;;9.62;81.57;101458.09;5011233;28;45496;-69
2022/03/04 05:34:57;;;;;;;;;75.50;55.25;;;;;9.66;81.09;101461.50;5013253;28;45491;-69
2022/03/04 05:37:23;;;;;;;;;75.50;55.50;;;;;9.68;81.65;101465.81;5011132;28;46370;-69
2022/03/04 05:39:48;;;;;;;;;77.25;57.50;;;;;9.71;81.32;101466.59;5015281;28;45571;-69
2022/03/04 05:42:14;;;;;;;;;74.75;53.00;;;;;9.72;81.02;101466.59;5020257;28;45376;-69
2022/03/04 05:44:40;;;;;;;;;79.00;55.75;;;;;9.74;81.01;101464.75;5011293;28;45353;-69
2022/03/04 05:47:05;;;;;;;;;70.00;54.25;;;;;9.75;80.96;101466.47;5015107;28;46053;-69
2022/03/04 05:49:30;;;;;;;;;75.50;54.50;;;;;9.74;81.16;101467.38;5011307;28;45301;-69
2022/03/04 05:51:56;;;;;;;;;70.00;55.00;;;;;9.78;80.70;101471.66;5014793;28;45626;-69
2022/03/04 05:54:21;;;;;;;;;73.00;56.00;;;;;9.79;81.04;101472.50;5012441;28;45489;-69
2022/03/04 05:56:46;;;;;;;;;67.75;54.50;;;;;9.82;81.22;101472.44;5011249;28;45364;-69
2022/03/04 05:59:12;;;;;;;;;77.50;57.25;;;;;9.80;80.96;101472.47;5011056;28;45376;-69
2022/03/04 06:01:37;;;;;;;;;80.00;60.00;;;;;9.85;81.18;101472.34;5011477;28;45407;-69
2022/03/04 06:04:02;;;;;;;;;75.00;55.67;;;;;9.87;80.90;101478.44;5011890;28;45611;-69
2022/03/04 06:06:28;;;;;;;;;76.00;56.50;;;;;9.88;80.81;101483.63;5014986;28;46287;-69
2022/03/04 06:08:54;;;;;;;;;75.75;56.75;;;;;9.90;80.89;101478.31;5010863;28;45408;-69
2022/03/04 06:11:19;;;;;;;;;78.25;56.50;;;;;9.93;80.72;101486.13;5011399;28;45396;-69
2022/03/04 06:13:45;;;;;;;;;75.25;57.00;;;;;9.94;80.69;101482.59;5010822;28;45372;-69
2022/03/04 06:16:11;;;;;;;;;76.00;59.00;;;;;9.96;80.73;101485.16;5011911;28;46174;-69
2022/03/04 06:18:37;;;;;;;;;74.25;54.00;;;;;9.97;80.43;101487.75;5014663;28;45401;-69
2022/03/04 06:21:03;;;;;;;;;74.00;55.50;;;;;9.98;80.39;101486.84;5011493;28;45455;-69
2022/03/04 06:23:28;;;;;;;;;71.50;56.00;;;;;9.98;80.64;101492.09;5010336;28;45483;-69
2022/03/04 06:25:55;;;;;;;;;72.50;55.50;;;;;9.98;80.79;101488.63;5010553;28;49414;-69
2022/03/04 06:28:21;;;;;;;;;72.00;55.50;;;;;9.99;80.68;101493.81;5010662;28;45699;-69
2022/03/04 06:30:46;;;;;;;;;68.50;55.00;;;;;10.00;80.52;101494.69;5015500;28;45293;-69
2022/03/04 06:33:30;;;;;;;;;68.00;52.50;;;;;10.01;80.75;101504.28;5009906;28;45302;-69
2022/03/04 06:35:56;;;;;;;;;69.50;52.75;;;;;10.03;80.80;101507.75;5013284;28;46234;-69
2022/03/04 06:38:21;;;;;;;;;75.75;56.75;;;;;10.04;80.74;101505.06;5009874;28;45547;-69
2022/03/04 06:40:49;;;;;;;;;75.00;55.50;;;;;10.05;80.63;101498.91;5010739;28;45526;-69
2022/03/04 06:43:14;;;;;;;;;73.75;54.25;;;;;10.08;80.82;101504.06;5011003;28;45467;-69
2022/03/04 06:45:49;;;;;;;;;73.25;53.50;;;;;10.10;80.58;101504.03;5014286;28;46094;-69
2022/03/04 06:48:17;;;;;;;;;79.25;56.75;;;;;10.10;80.83;101507.50;5011459;28;45397;-69
2022/03/04 06:50:43;;;;;;;;;75.50;52.50;;;;;10.12;80.50;101517.94;5014712;28;45413;-69
2022/03/04 06:53:09;;;;;;;;;71.50;54.25;;;;;10.12;80.64;101518.81;5009692;28;45247;-69
2022/03/04 06:55:34;;;;;;;;;71.50;54.50;;;;;10.16;80.41;101527.47;5010529;28;45429;-69
2022/03/04 06:58:00;;;;;;;;;67.75;51.00;;;;;10.18;80.61;101525.69;5012819;28;45317;-69
2022/03/04 07:00:26;;;;;;;;;70.50;54.75;;;;;10.22;80.11;101529.94;5012669;28;45684;-69
2022/03/04 07:02:52;;;;;;;;;73.00;52.50;;;;;10.26;80.35;101528.13;5012832;28;45622;-69
2022/03/04 07:05:21;;;;;;;;;72.75;54.00;;;;;10.28;80.31;101529.78;5009962;28;46185;-69
2022/03/04 07:07:47;;;;;;;;;64.25;50.25;;;;;10.30;80.33;101538.50;5009960;28;45650;-69
2022/03/04 07:10:13;;;;;;;;;61.75;49.50;;;;;10.30;79.93;101538.50;5014257;28;45851;-68
2022/03/04 07:12:38;;;;;;;;;72.33;54.33;;;;;10.35;80.12;101538.38;5014575;28;45814;-69
2022/03/04 07:15:05;;;;;;;;;68.67;49.67;;;;;10.39;80.22;101542.63;5010621;28;46850;-68
2022/03/04 07:17:30;;;;;;;;;75.50;55.75;;;;;10.44;80.22;101552.09;5010025;28;45385;-68
2022/03/04 07:19:55;;;;;;;;;70.00;54.00;;;;;10.48;79.97;101549.34;5010115;28;45554;-68
2022/03/04 07:22:21;;;;;;;;;70.00;51.00;;;;;10.50;79.76;101543.16;5013272;28;45508;-69
2022/03/04 07:24:46;;;;;;;;;69.50;51.75;;;;;10.50;79.89;101548.44;5014365;28;45972;-70
2022/03/04 07:27:11;;;;;;;;;70.75;52.75;;;;;10.53;79.56;101550.94;5010576;28;45439;-71
2022/03/04 07:29:37;;;;;;;;;69.75;51.50;;;;;10.55;79.72;101550.91;5009613;28;45384;-71
2022/03/04 07:32:02;;;;;;;;;71.00;51.75;;;;;10.55;79.32;101553.56;5012181;28;45727;-70
2022/03/04 07:34:28;;;;;;;;;66.50;47.00;;;;;10.61;79.35;101558.63;5011746;28;46111;-71
2022/03/04 07:36:54;;;;;;;;;68.50;52.25;;;;;10.64;78.97;101563.75;5011840;28;45369;-71
2022/03/04 07:39:20;;;;;;;;;63.75;47.75;;;;;10.67;78.88;101556.66;5013801;28;45460;-71
2022/03/04 07:41:48;;;;;;;;;69.00;50.00;;;;;10.75;79.00;101560.81;5009423;28;45639;-70
2022/03/04 07:44:14;;;;;;;;;64.50;48.00;;;;;10.81;78.66;101555.38;5011187;28;46051;-71
2022/03/04 07:46:39;;;;;;;;;58.50;47.25;;;;;10.87;78.43;101553.44;5012865;28;46005;-71
2022/03/04 07:49:05;;;;;;;;;71.25;50.25;;;;;10.91;78.09;101559.44;5011764;28;45499;-71
2022/03/04 07:51:30;;;;;;;;;65.75;49.75;;;;;10.94;78.14;101557.56;5013240;28;45437;-70
2022/03/04 07:53:56;;;;;;;;;61.25;49.25;;;;;10.98;77.80;101559.19;5013191;28;46395;-71
2022/03/04 07:56:23;;;;;;;;;67.75;48.25;;;;;11.04;77.94;101566.03;5012886;28;45425;-70
2022/03/04 07:58:49;;;;;;;;;66.00;47.00;;;;;11.07;77.38;101565.09;5008716;28;45246;-71
2022/03/04 08:01:15;;;;;;;;;64.75;47.50;;;;;11.11;77.59;101574.59;5013078;28;45590;-71
2022/03/04 08:03:42;;;;;;;;;64.75;47.50;;;;;11.10;77.03;101563.22;5014638;28;45466;-71
2022/03/04 08:06:08;;;;;;;;;62.75;47.50;;;;;11.17;77.08;101566.50;5016304;28;45495;-70
2022/03/04 08:08:34;;;;;;;;;60.75;45.75;;;;;11.22;76.85;101562.84;5012129;28;45530;-70
2022/03/04 08:11:00;;;;;;;;;60.00;47.25;;;;;11.26;76.47;101568.84;5009879;28;45698;-71
2022/03/04 08:13:25;;;;;;;;;62.75;47.75;;;;;11.32;76.45;101573.03;5016257;28;46101;-71
2022/03/04 08:15:51;;;;;;;;;65.50;47.25;;;;;11.36;76.22;101580.78;5016573;28;45405;-71
2022/03/04 08:18:16;;;;;;;;;58.25;45.50;;;;;11.41;76.47;101578.88;5017376;28;45327;-71
2022/03/04 08:20:41;;;;;;;;;64.75;50.50;;;;;11.46;76.04;101584.84;5008669;28;45403;-71
2022/03/04 08:23:07;;;;;;;;;65.25;49.25;;;;;11.52;76.20;101588.19;5010409;28;47099;-70
2022/03/04 08:25:32;;;;;;;;;61.50;47.25;;;;;11.56;75.92;101582.75;5014874;28;45432;-70
2022/03/04 08:27:58;;;;;;;;;56.25;44.00;;;;;11.60;75.45;101592.28;5012521;28;47546;-70
2022/03/04 08:30:24;;;;;;;;;66.50;48.50;;;;;11.64;75.44;101586.00;5015448;28;45609;-70
2022/03/04 08:32:49;;;;;;;;;63.00;47.25;;;;;11.68;75.36;101592.88;5022105;28;45916;-70
2022/03/04 08:35:14;;;;;;;;;63.00;48.25;;;;;11.76;75.33;101590.84;5014194;28;45994;-70
2022/03/04 08:37:40;;;;;;;;;77.00;59.75;;;;;11.85;75.08;101591.47;5009652;28;45535;-71
2022/03/04 08:40:08;;;;;;;;;62.25;46.75;;;;;11.95;74.89;101599.03;5014226;28;45511;-70
2022/03/04 08:42:34;;;;;;;;;61.25;45.75;;;;;12.04;74.62;101596.97;4986403;28;45559;-70
2022/03/04 08:45:00;;;;;;;;;60.00;44.00;;;;;12.05;73.99;101593.41;5003914;28;45917;-70
2022/03/04 08:47:25;;;;;;;;;55.75;44.75;;;;;12.10;73.75;101602.88;5010513;28;45390;-70
2022/03/04 08:49:51;;;;;;;;;63.25;46.00;;;;;12.18;73.66;101602.63;5012892;28;45364;-70
2022/03/04 08:52:16;;;;;;;;;59.25;46.75;;;;;12.21;73.66;101603.34;5013084;28;46105;-70
2022/03/04 08:54:42;;;;;;;;;63.50;48.25;;;;;12.31;73.50;101609.16;5013202;28;45444;-70
2022/03/04 08:57:07;;;;;;;;;60.25;46.00;;;;;12.37;73.11;101614.22;5013231;28;45540;-70
2022/03/04 08:59:33;;;;;;;;;63.00;49.00;;;;;12.46;72.71;101611.22;5012479;28;45656;-70
2022/03/04 09:01:58;;;;;;;;;72.00;49.25;;;;;12.51;72.33;101611.91;5011924;28;45464;-70
2022/03/04 09:04:24;;;;;;;;;62.50;49.00;;;;;12.64;72.25;101612.34;5013022;28;46079;-70
2022/03/04 09:06:50;;;;;;;;;62.75;48.50;;;;;12.68;71.61;101599.88;5012492;28;45578;-70
2022/03/04 09:09:16;;;;;;;;;67.50;51.25;;;;;12.77;71.74;101615.34;5014040;28;45425;-70
2022/03/04 09:11:43;;;;;;;;;76.00;52.25;;;;;12.80;71.59;101605.56;5012918;28;50632;-70
2022/03/04 09:14:08;;;;;;;;;67.00;49.75;;;;;12.89;71.22;101611.38;5012124;28;45522;-70
2022/03/04 09:16:34;;;;;;;;;65.75;50.25;;;;;12.99;71.18;101610.09;5011687;28;45767;-70
2022/03/04 09:18:59;;;;;;;;;64.00;50.25;;;;;13.11;70.90;101607.00;5011950;28;45738;-70
2022/03/04 09:21:26;;;;;;;;;63.75;50.00;;;;;13.25;70.66;101607.31;5012326;28;45978;-70
2022/03/04 09:23:51;;;;;;;;;63.50;47.00;;;;;13.36;70.12;101611.31;5013166;28;45450;-70
2022/03/04 09:26:16;;;;;;;;;70.25;52.00;;;;;13.45;70.17;101610.94;5013083;28;45729;-71
2022/03/04 09:28:42;;;;;;;;;66.00;48.33;;;;;13.46;69.37;101607.38;5013286;28;45660;-70
2022/03/04 09:31:07;;;;;;;;;67.25;48.50;;;;;13.50;68.96;101603.69;5010799;28;46584;-70
2022/03/04 09:33:33;;;;;;;;;65.25;47.50;;;;;13.53;68.72;101604.44;5011952;28;45454;-70
2022/03/04 09:36:00;;;;;;;;;219.00;180.25;;;;;13.60;68.84;101614.75;5013827;28;45555;-71
2022/03/04 09:38:26;;;;;;;;;75.75;55.25;;;;;13.68;68.62;101610.00;5012753;28;45985;-70
2022/03/04 09:40:52;;;;;;;;;70.25;50.25;;;;;13.75;68.29;101604.41;5012402;28;46221;-70
2022/03/04 09:43:18;;;;;;;;;66.50;50.00;;;;;13.87;68.60;101607.44;5011662;28;45851;-71
2022/03/04 09:45:49;;;;;;;;;66.25;51.00;;;;;13.86;67.64;101611.00;4994567;28;45467;-70
2022/03/04 09:48:15;;;;;;;;;67.75;52.50;;;;;13.92;67.30;101616.03;5009103;28;45465;-70
2022/03/04 09:50:44;;;;;;;;;70.75;50.25;;;;;13.99;67.42;101604.25;5011925;28;46102;-71
2022/03/04 09:53:11;;;;;;;;;73.00;50.50;;;;;14.06;67.17;101598.66;5007523;28;46398;-71
2022/03/04 09:55:38;;;;;;;;;60.75;48.50;;;;;14.15;66.82;101609.72;5011230;28;45441;-71
2022/03/04 09:58:12;;;;;;;;;63.00;50.50;;;;;14.18;66.51;101612.25;5004409;28;45361;-71
2022/03/04 10:00:38;;;;;;;;;67.25;50.75;;;;;14.26;66.43;101616.28;5010746;28;46296;-71
2022/03/04 10:03:05;;;;;;;;;69.50;51.75;;;;;14.30;65.60;101611.69;5012903;28;45383;-70
2022/03/04 10:05:30;;;;;;;;;69.25;50.75;;;;;14.27;65.64;101603.91;5010702;28;45763;-70
2022/03/04 10:07:55;;;;;;;;;68.67;50.67;;;;;14.29;65.97;101609.97;5010781;28;45795;-70
2022/03/04 10:10:22;;;;;;;;;67.25;51.50;;;;;14.32;66.00;101613.38;5011916;28;45531;-72
2022/03/04 10:12:56;;;;;;;;;70.50;52.75;;;;;14.34;65.59;101608.84;5012725;28;45546;-71
2022/03/04 10:15:23;;;;;;;;;69.00;50.75;;;;;14.39;65.40;101605.16;5016470;28;45409;-71
2022/03/04 10:18:04;;;;;;;;;70.00;50.00;;;;;14.37;65.40;101618.44;5023530;28;45877;-70
2022/03/04 10:20:40;;;;;;;;;70.00;50.00;;;;;14.41;65.09;101613.84;5017024;28;45359;-70
2022/03/04 10:23:19;;;;;;;;;69.25;52.00;;;;;14.47;65.80;101619.78;5015014;28;45531;-70
2022/03/04 10:25:48;;;;;;;;;68.75;49.75;;;;;14.53;65.53;101616.88;5013992;28;45423;-70
2022/03/04 10:28:13;;;;;;;;;73.25;52.00;;;;;14.59;64.92;101618.38;5015328;28;45214;-70
2022/03/04 10:30:43;;;;;;;;;70.75;54.00;;;;;14.63;65.37;101619.09;5014497;28;45373;-70
2022/03/04 10:33:11;;;;;;;;;70.50;52.00;;;;;14.67;64.90;101613.59;5012812;28;45446;-70
2022/03/04 10:35:38;;;;;;;;;70.00;52.75;;;;;14.73;64.55;101615.97;5015995;28;45325;-70
2022/03/04 10:38:04;;;;;;;;;73.25;54.00;;;;;14.74;64.79;101607.09;5017599;28;45401;-70
2022/03/04 10:40:43;;;;;;;;;72.25;50.50;;;;;14.87;64.22;101624.09;5016037;28;45994;-70
2022/03/04 10:43:10;;;;;;;;;70.00;52.00;;;;;14.91;64.33;101622.16;4996746;28;46111;-71
2022/03/04 10:45:43;;;;;;;;;68.50;52.50;;;;;14.93;64.03;101624.72;5014499;28;45462;-70
2022/03/04 10:48:11;;;;;;;;;69.00;50.25;;;;;14.94;63.66;101626.47;5019104;28;45571;-71
2022/03/04 10:50:38;;;;;;;;;68.25;53.00;;;;;14.91;63.43;101627.47;5017370;28;45425;-70
2022/03/04 10:53:05;;;;;;;;;68.75;50.50;;;;;14.85;63.38;101620.66;5009955;28;45225;-70
2022/03/04 10:55:40;;;;;;;;;72.00;52.50;;;;;14.82;63.59;101620.78;5010176;28;45389;-70
2022/03/04 10:58:15;;;;;;;;;68.25;51.50;;;;;14.84;63.71;101615.47;5014178;28;45433;-71
2022/03/04 11:00:44;;;;;;;;;69.75;53.25;;;;;14.92;63.39;101612.44;5014314;28;46094;-71
2022/03/04 11:03:14;;;;;;;;;70.00;51.75;;;;;15.03;63.45;101623.38;5015378;28;47057;-70
2022/03/04 11:05:39;;;;;;;;;71.50;55.25;;;;;15.11;63.55;101616.78;5020636;28;45452;-71
2022/03/04 11:08:06;;;;;;;;;70.75;52.50;;;;;15.24;63.54;101619.69;5015002;28;45385;-72